sensor_id;sensor_type;location;lat;lon;timestamp;pressure;altitude;pressure_sealevel;temperature;humidity
12054;BME280;5638;50.860;4.698;2022-07-21T00:01:51;101383.94;;;20.78;nan
12054;BME280;5638;50.860;4.698;2022-07-21T00:04:17;101377.97;;;20.74;nan
12054;BME280;5638;50.860;4.698;2022-07-21T00:06:44;101377.13;;;20.74;nan
12054;BME280;5638;50.860;4.698;2022-07-21T00:09:11;101380.63;;;20.74;nan
12054;BME280;5638;50.860;4.698;2022-07-21T00:11:38;101384.44;;;20.67;nan
12054;BME280;5638;50.860;4.698;2022-07-21T00:14:06;101386.78;;;20.73;nan
12054;BME280;5638;50.860;4.698;2022-07-21T00:16:33;101382.81;;;20.64;nan
12054;BME280;5638;50.860;4.698;2022-07-21T00:18:59;101381.69;;;20.70;nan
12054;BME280;5638;50.860;4.698;2022-07-21T00:21:27;101377.97;;;20.74;nan
12054;BME280;5638;50.860;4.698;2022-07-21T00:23:54;101385.41;;;20.83;nan
12054;BME280;5638;50.860;4.698;2022-07-21T00:26:20;101369.84;;;20.61;nan
12054;BME280;5638;50.860;4.698;2022-07-21T00:28:47;101388.41;;;20.76;nan
12054;BME280;5638;50.860;4.698;2022-07-21T00:31:13;101377.19;;;20.72;nan
12054;BME280;5638;50.860;4.698;2022-07-21T00:33:39;101391.13;;;20.74;nan
12054;BME280;5638;50.860;4.698;2022-07-21T00:36:05;101371.75;;;20.58;nan
12054;BME280;5638;50.860;4.698;2022-07-21T00:38:31;101371.13;;;20.53;nan
12054;BME280;5638;50.860;4.698;2022-07-21T00:40:56;101376.06;;;20.59;nan
12054;BME280;5638;50.860;4.698;2022-07-21T00:43:22;101379.78;;;20.55;nan
12054;BME280;5638;50.860;4.698;2022-07-21T00:45:52;101382.53;;;20.52;nan
12054;BME280;5638;50.860;4.698;2022-07-21T00:48:18;101365.41;;;20.43;nan
12054;BME280;5638;50.860;4.698;2022-07-21T00:50:43;101372.19;;;20.49;nan
12054;BME280;5638;50.860;4.698;2022-07-21T00:53:09;101368.25;;;20.38;nan
12054;BME280;5638;50.860;4.698;2022-07-21T00:55:35;101376.28;;;20.35;nan
12054;BME280;5638;50.860;4.698;2022-07-21T00:58:02;101373.50;;;20.38;nan
12054;BME280;5638;50.860;4.698;2022-07-21T01:00:30;101374.34;;;20.39;nan
12054;BME280;5638;50.860;4.698;2022-07-21T01:02:57;101371.72;;;20.39;nan
12054;BME280;5638;50.860;4.698;2022-07-21T01:05:24;101366.47;;;20.39;nan
12054;BME280;5638;50.860;4.698;2022-07-21T01:07:53;101369.09;;;20.39;nan
12054;BME280;5638;50.860;4.698;2022-07-21T01:10:23;101372.66;;;20.38;nan
12054;BME280;5638;50.860;4.698;2022-07-21T01:12:50;101377.06;;;20.37;nan
12054;BME280;5638;50.860;4.698;2022-07-21T01:15:19;101381.88;;;20.47;nan
12054;BME280;5638;50.860;4.698;2022-07-21T01:17:46;101354.56;;;20.32;nan
12054;BME280;5638;50.860;4.698;2022-07-21T01:20:16;101377.19;;;20.34;nan
12054;BME280;5638;50.860;4.698;2022-07-21T01:22:46;101371.19;;;20.32;nan
12054;BME280;5638;50.860;4.698;2022-07-21T01:25:12;101373.47;;;20.40;nan
12054;BME280;5638;50.860;4.698;2022-07-21T01:27:39;101387.22;;;20.45;nan
12054;BME280;5638;50.860;4.698;2022-07-21T01:30:07;101360.88;;;20.28;nan
12054;BME280;5638;50.860;4.698;2022-07-21T01:32:36;101383.56;;;20.49;nan
12054;BME280;5638;50.860;4.698;2022-07-21T01:35:05;101377.66;;;20.44;nan
12054;BME280;5638;50.860;4.698;2022-07-21T01:37:34;101392.47;;;20.64;nan
12054;BME280;5638;50.860;4.698;2022-07-21T01:40:00;101389.44;;;20.54;nan
12054;BME280;5638;50.860;4.698;2022-07-21T01:42:44;101400.81;;;20.55;nan
12054;BME280;5638;50.860;4.698;2022-07-21T01:45:10;101385.34;;;20.47;nan
12054;BME280;5638;50.860;4.698;2022-07-21T01:47:36;101398.88;;;20.58;nan
12054;BME280;5638;50.860;4.698;2022-07-21T01:50:03;101395.63;;;20.53;nan
12054;BME280;5638;50.860;4.698;2022-07-21T01:52:29;101386.66;;;20.38;nan
12054;BME280;5638;50.860;4.698;2022-07-21T01:54:55;101399.34;;;20.48;nan
12054;BME280;5638;50.860;4.698;2022-07-21T01:57:20;101404.59;;;20.48;nan
12054;BME280;5638;50.860;4.698;2022-07-21T01:59:46;101386.59;;;20.40;nan
12054;BME280;5638;50.860;4.698;2022-07-21T02:02:12;101397.97;;;20.40;nan
12054;BME280;5638;50.860;4.698;2022-07-21T02:04:38;101395.47;;;20.37;nan
12054;BME280;5638;50.860;4.698;2022-07-21T02:07:04;101397.25;;;20.37;nan
12054;BME280;5638;50.860;4.698;2022-07-21T02:09:30;101415.84;;;20.32;nan
12054;BME280;5638;50.860;4.698;2022-07-21T02:11:56;101399.16;;;20.33;nan
12054;BME280;5638;50.860;4.698;2022-07-21T02:14:22;101387.72;;;20.34;nan
12054;BME280;5638;50.860;4.698;2022-07-21T02:16:47;101402.16;;;20.45;nan
12054;BME280;5638;50.860;4.698;2022-07-21T02:19:14;101399.44;;;20.46;nan
12054;BME280;5638;50.860;4.698;2022-07-21T02:21:40;101392.41;;;20.47;nan
12054;BME280;5638;50.860;4.698;2022-07-21T02:24:06;101401.03;;;20.50;nan
12054;BME280;5638;50.860;4.698;2022-07-21T02:26:32;101387.97;;;20.49;nan
12054;BME280;5638;50.860;4.698;2022-07-21T02:28:58;101387.97;;;20.49;nan
12054;BME280;5638;50.860;4.698;2022-07-21T02:31:24;101395.47;;;20.56;nan
12054;BME280;5638;50.860;4.698;2022-07-21T02:33:50;101381.16;;;20.43;nan
12054;BME280;5638;50.860;4.698;2022-07-21T02:36:16;101391.09;;;20.57;nan
12054;BME280;5638;50.860;4.698;2022-07-21T02:38:42;101389.72;;;20.48;nan
12054;BME280;5638;50.860;4.698;2022-07-21T02:41:07;101383.38;;;20.33;nan
12054;BME280;5638;50.860;4.698;2022-07-21T02:43:33;101365.16;;;20.49;nan
12054;BME280;5638;50.860;4.698;2022-07-21T02:45:59;101386.44;;;20.43;nan
12054;BME280;5638;50.860;4.698;2022-07-21T02:48:25;101379.38;;;20.44;nan
12054;BME280;5638;50.860;4.698;2022-07-21T02:50:51;101380.31;;;20.43;nan
12054;BME280;5638;50.860;4.698;2022-07-21T02:53:18;101375.88;;;20.45;nan
12054;BME280;5638;50.860;4.698;2022-07-21T02:55:46;101370.81;;;20.40;nan
12054;BME280;5638;50.860;4.698;2022-07-21T02:58:18;101364.69;;;20.39;nan
12054;BME280;5638;50.860;4.698;2022-07-21T03:01:04;101372.03;;;20.33;nan
12054;BME280;5638;50.860;4.698;2022-07-21T03:03:36;101370.19;;;20.16;nan
12054;BME280;5638;50.860;4.698;2022-07-21T03:06:03;101358.66;;;20.00;nan
12054;BME280;5638;50.860;4.698;2022-07-21T03:08:29;101362.06;;;20.02;nan
12054;BME280;5638;50.860;4.698;2022-07-21T03:10:56;101349.16;;;19.97;nan
12054;BME280;5638;50.860;4.698;2022-07-21T03:13:22;101353.56;;;19.97;nan
12054;BME280;5638;50.860;4.698;2022-07-21T03:15:48;101352.78;;;19.95;nan
12054;BME280;5638;50.860;4.698;2022-07-21T03:18:14;101350.72;;;20.01;nan
12054;BME280;5638;50.860;4.698;2022-07-21T03:20:44;101356.75;;;20.03;nan
12054;BME280;5638;50.860;4.698;2022-07-21T03:23:11;101365.38;;;20.07;nan
12054;BME280;5638;50.860;4.698;2022-07-21T03:25:37;101354.69;;;20.10;nan
12054;BME280;5638;50.860;4.698;2022-07-21T03:28:03;101361.66;;;20.11;nan
12054;BME280;5638;50.860;4.698;2022-07-21T03:30:30;101333.66;;;20.10;nan
12054;BME280;5638;50.860;4.698;2022-07-21T03:32:57;101352.34;;;20.23;nan
12054;BME280;5638;50.860;4.698;2022-07-21T03:35:23;101365.47;;;20.23;nan
12054;BME280;5638;50.860;4.698;2022-07-21T03:37:58;101347.38;;;20.17;nan
12054;BME280;5638;50.860;4.698;2022-07-21T03:40:29;101347.47;;;20.15;nan
12054;BME280;5638;50.860;4.698;2022-07-21T03:42:59;101336.38;;;20.08;nan
12054;BME280;5638;50.860;4.698;2022-07-21T03:45:27;101357.97;;;20.15;nan
12054;BME280;5638;50.860;4.698;2022-07-21T03:47:57;101346.81;;;20.10;nan
12054;BME280;5638;50.860;4.698;2022-07-21T03:50:24;101353.13;;;20.06;nan
12054;BME280;5638;50.860;4.698;2022-07-21T03:52:51;101333.16;;;20.02;nan
12054;BME280;5638;50.860;4.698;2022-07-21T03:55:17;101355.47;;;20.12;nan
12054;BME280;5638;50.860;4.698;2022-07-21T03:57:57;101356.25;;;20.14;nan
12054;BME280;5638;50.860;4.698;2022-07-21T04:00:40;101370.44;;;20.10;nan
12054;BME280;5638;50.860;4.698;2022-07-21T04:03:07;101354.56;;;19.94;nan
12054;BME280;5638;50.860;4.698;2022-07-21T04:05:34;101358.66;;;20.00;nan
12054;BME280;5638;50.860;4.698;2022-07-21T04:08:00;101368.47;;;19.96;nan
12054;BME280;5638;50.860;4.698;2022-07-21T04:10:31;101362.28;;;19.97;nan
12054;BME280;5638;50.860;4.698;2022-07-21T04:13:00;101383.38;;;20.14;nan
12054;BME280;5638;50.860;4.698;2022-07-21T04:15:27;101380.75;;;20.14;nan
12054;BME280;5638;50.860;4.698;2022-07-21T04:17:53;101373.75;;;20.15;nan
12054;BME280;5638;50.860;4.698;2022-07-21T04:20:20;101377.00;;;20.20;nan
12054;BME280;5638;50.860;4.698;2022-07-21T04:22:48;101370.19;;;20.16;nan
12054;BME280;5638;50.860;4.698;2022-07-21T04:25:16;101390.91;;;20.22;nan
12054;BME280;5638;50.860;4.698;2022-07-21T04:27:43;101398.25;;;20.15;nan
12054;BME280;5638;50.860;4.698;2022-07-21T04:30:14;101396.38;;;20.18;nan
12054;BME280;5638;50.860;4.698;2022-07-21T04:32:40;101386.09;;;20.13;nan
12054;BME280;5638;50.860;4.698;2022-07-21T04:35:07;101381.31;;;20.21;nan
12054;BME280;5638;50.860;4.698;2022-07-21T04:37:34;101384.81;;;20.22;nan
12054;BME280;5638;50.860;4.698;2022-07-21T04:40:02;101374.28;;;20.22;nan
12054;BME280;5638;50.860;4.698;2022-07-21T04:42:28;101383.31;;;20.35;nan
12054;BME280;5638;50.860;4.698;2022-07-21T04:44:54;101379.91;;;20.33;nan
12054;BME280;5638;50.860;4.698;2022-07-21T04:47:20;101381.03;;;20.27;nan
12054;BME280;5638;50.860;4.698;2022-07-21T04:49:49;101371.75;;;20.20;nan
12054;BME280;5638;50.860;4.698;2022-07-21T04:52:16;101382.81;;;20.27;nan
12054;BME280;5638;50.860;4.698;2022-07-21T04:54:42;101389.41;;;20.35;nan
12054;BME280;5638;50.860;4.698;2022-07-21T04:57:08;101371.75;;;20.20;nan
12054;BME280;5638;50.860;4.698;2022-07-21T04:59:35;101372.59;;;20.21;nan
12054;BME280;5638;50.860;4.698;2022-07-21T05:02:01;101383.09;;;20.21;nan
12054;BME280;5638;50.860;4.698;2022-07-21T05:04:27;101385.81;;;20.19;nan
12054;BME280;5638;50.860;4.698;2022-07-21T05:06:53;101376.13;;;20.01;nan
12054;BME280;5638;50.860;4.698;2022-07-21T05:09:19;101385.50;;;20.06;nan
12054;BME280;5638;50.860;4.698;2022-07-21T05:11:45;101386.09;;;20.13;nan
12054;BME280;5638;50.860;4.698;2022-07-21T05:14:11;101389.34;;;20.18;nan
12054;BME280;5638;50.860;4.698;2022-07-21T05:16:38;101384.25;;;20.15;nan
12054;BME280;5638;50.860;4.698;2022-07-21T05:19:03;101370.16;;;19.97;nan
12054;BME280;5638;50.860;4.698;2022-07-21T05:21:29;101371.25;;;20.12;nan
12054;BME280;5638;50.860;4.698;2022-07-21T05:23:55;101387.34;;;20.04;nan
12054;BME280;5638;50.860;4.698;2022-07-21T05:26:22;101381.97;;;20.07;nan
12054;BME280;5638;50.860;4.698;2022-07-21T05:28:48;101382.69;;;20.11;nan
12054;BME280;5638;50.860;4.698;2022-07-21T05:31:14;101393.47;;;20.24;nan
12054;BME280;5638;50.860;4.698;2022-07-21T05:33:39;101381.69;;;20.13;nan
12054;BME280;5638;50.860;4.698;2022-07-21T05:36:05;101372.19;;;20.11;nan
12054;BME280;5638;50.860;4.698;2022-07-21T05:38:32;101391.53;;;20.27;nan
12054;BME280;5638;50.860;4.698;2022-07-21T05:40:58;101387.66;;;20.36;nan
12054;BME280;5638;50.860;4.698;2022-07-21T05:43:26;101379.13;;;20.31;nan
12054;BME280;5638;50.860;4.698;2022-07-21T05:45:52;101386.09;;;20.32;nan
12054;BME280;5638;50.860;4.698;2022-07-21T05:48:18;101376.56;;;20.29;nan
12054;BME280;5638;50.860;4.698;2022-07-21T05:50:44;101372.69;;;20.19;nan
12054;BME280;5638;50.860;4.698;2022-07-21T05:53:10;101382.13;;;20.23;nan
12054;BME280;5638;50.860;4.698;2022-07-21T05:55:36;101390.69;;;20.27;nan
12054;BME280;5638;50.860;4.698;2022-07-21T05:58:02;101391.34;;;20.32;nan
12054;BME280;5638;50.860;4.698;2022-07-21T06:00:28;101378.47;;;20.26;nan
12054;BME280;5638;50.860;4.698;2022-07-21T06:02:54;101388.00;;;20.28;nan
12054;BME280;5638;50.860;4.698;2022-07-21T06:05:20;101383.66;;;20.27;nan
12054;BME280;5638;50.860;4.698;2022-07-21T06:07:46;101395.41;;;20.20;nan
12054;BME280;5638;50.860;4.698;2022-07-21T06:10:14;101402.25;;;20.23;nan
12054;BME280;5638;50.860;4.698;2022-07-21T06:12:41;101386.66;;;20.20;nan
12054;BME280;5638;50.860;4.698;2022-07-21T06:15:07;101404.59;;;20.48;nan
12054;BME280;5638;50.860;4.698;2022-07-21T06:17:44;101390.28;;;20.36;nan
12054;BME280;5638;50.860;4.698;2022-07-21T06:20:12;101402.84;;;20.29;nan
12054;BME280;5638;50.860;4.698;2022-07-21T06:22:38;101419.38;;;20.31;nan
12054;BME280;5638;50.860;4.698;2022-07-21T06:25:05;101397.69;;;20.28;nan
12054;BME280;5638;50.860;4.698;2022-07-21T06:27:31;101412.66;;;20.26;nan
12054;BME280;5638;50.860;4.698;2022-07-21T06:30:00;101415.28;;;20.26;nan
12054;BME280;5638;50.860;4.698;2022-07-21T06:32:26;101419.38;;;20.31;nan
12054;BME280;5638;50.860;4.698;2022-07-21T06:34:52;101419.19;;;20.36;nan
12054;BME280;5638;50.860;4.698;2022-07-21T06:37:18;101417.34;;;20.38;nan
12054;BME280;5638;50.860;4.698;2022-07-21T06:39:44;101417.47;;;20.35;nan
12054;BME280;5638;50.860;4.698;2022-07-21T06:42:10;101420.44;;;20.27;nan
12054;BME280;5638;50.860;4.698;2022-07-21T06:44:36;101431.31;;;20.38;nan
12054;BME280;5638;50.860;4.698;2022-07-21T06:47:02;101429.91;;;20.31;nan
12054;BME280;5638;50.860;4.698;2022-07-21T06:49:33;101440.47;;;20.11;nan
12054;BME280;5638;50.860;4.698;2022-07-21T06:51:59;101434.19;;;19.95;nan
12054;BME280;5638;50.860;4.698;2022-07-21T06:54:25;101444.16;;;20.07;nan
12054;BME280;5638;50.860;4.698;2022-07-21T06:56:51;101435.56;;;20.03;nan
12054;BME280;5638;50.860;4.698;2022-07-21T06:59:17;101431.28;;;20.01;nan
12054;BME280;5638;50.860;4.698;2022-07-21T07:01:43;101444.09;;;19.88;nan
12054;BME280;5638;50.860;4.698;2022-07-21T07:04:09;101443.97;;;19.91;nan
12054;BME280;5638;50.860;4.698;2022-07-21T07:06:35;101439.72;;;19.88;nan
12054;BME280;5638;50.860;4.698;2022-07-21T07:09:01;101435.50;;;19.84;nan
12054;BME280;5638;50.860;4.698;2022-07-21T07:11:27;101435.31;;;19.89;nan
12054;BME280;5638;50.860;4.698;2022-07-21T07:13:52;101439.44;;;19.95;nan
12054;BME280;5638;50.860;4.698;2022-07-21T07:16:18;101462.81;;;20.01;nan
12054;BME280;5638;50.860;4.698;2022-07-21T07:18:44;101460.81;;;20.06;nan
12054;BME280;5638;50.860;4.698;2022-07-21T07:21:10;101436.94;;;20.12;nan
12054;BME280;5638;50.860;4.698;2022-07-21T07:23:36;101445.75;;;20.11;nan
12054;BME280;5638;50.860;4.698;2022-07-21T07:26:01;101460.50;;;20.13;nan
12054;BME280;5638;50.860;4.698;2022-07-21T07:28:27;101457.94;;;20.12;nan
12054;BME280;5638;50.860;4.698;2022-07-21T07:30:54;101444.28;;;20.04;nan
12054;BME280;5638;50.860;4.698;2022-07-21T07:33:20;101464.25;;;20.08;nan
12054;BME280;5638;50.860;4.698;2022-07-21T07:35:47;101445.28;;;19.81;nan
12054;BME280;5638;50.860;4.698;2022-07-21T07:38:14;101460.59;;;19.92;nan
12054;BME280;5638;50.860;4.698;2022-07-21T07:40:41;101462.16;;;19.96;nan
12054;BME280;5638;50.860;4.698;2022-07-21T07:43:08;101444.84;;;19.92;nan
12054;BME280;5638;50.860;4.698;2022-07-21T07:45:37;101454.22;;;19.97;nan
12054;BME280;5638;50.860;4.698;2022-07-21T07:48:04;101448.06;;;19.98;nan
12054;BME280;5638;50.860;4.698;2022-07-21T07:50:30;101450.69;;;19.98;nan
12054;BME280;5638;50.860;4.698;2022-07-21T07:52:56;101445.09;;;19.85;nan
12054;BME280;5638;50.860;4.698;2022-07-21T07:55:22;101475.91;;;20.02;nan
12054;BME280;5638;50.860;4.698;2022-07-21T07:57:48;101455.47;;;19.88;nan
12054;BME280;5638;50.860;4.698;2022-07-21T08:00:17;101434.66;;;19.84;nan
12054;BME280;5638;50.860;4.698;2022-07-21T08:02:43;101467.22;;;20.00;nan
12054;BME280;5638;50.860;4.698;2022-07-21T08:05:09;101465.19;;;20.07;nan
12054;BME280;5638;50.860;4.698;2022-07-21T08:07:39;101468.56;;;20.29;nan
12054;BME280;5638;50.860;4.698;2022-07-21T08:10:08;101460.88;;;20.44;nan
12054;BME280;5638;50.860;4.698;2022-07-21T08:12:34;101471.31;;;20.26;nan
12054;BME280;5638;50.860;4.698;2022-07-21T08:15:00;101474.00;;;20.25;nan
12054;BME280;5638;50.860;4.698;2022-07-21T08:17:27;101472.56;;;20.18;nan
12054;BME280;5638;50.860;4.698;2022-07-21T08:19:52;101472.69;;;20.14;nan
12054;BME280;5638;50.860;4.698;2022-07-21T08:22:18;101461.53;;;20.09;nan
12054;BME280;5638;50.860;4.698;2022-07-21T08:24:44;101468.44;;;20.12;nan
12054;BME280;5638;50.860;4.698;2022-07-21T08:27:10;101471.09;;;20.12;nan
12054;BME280;5638;50.860;4.698;2022-07-21T08:29:36;101477.25;;;20.11;nan
12054;BME280;5638;50.860;4.698;2022-07-21T08:32:02;101475.41;;;20.13;nan
12054;BME280;5638;50.860;4.698;2022-07-21T08:34:28;101477.09;;;20.14;nan
12054;BME280;5638;50.860;4.698;2022-07-21T08:36:55;101480.53;;;20.16;nan
12054;BME280;5638;50.860;4.698;2022-07-21T08:39:20;101463.75;;;20.00;nan
12054;BME280;5638;50.860;4.698;2022-07-21T08:41:47;101475.00;;;20.22;nan
12054;BME280;5638;50.860;4.698;2022-07-21T08:44:14;101483.72;;;20.23;nan
12054;BME280;5638;50.860;4.698;2022-07-21T08:46:42;101484.84;;;20.17;nan
12054;BME280;5638;50.860;4.698;2022-07-21T08:49:10;101482.78;;;20.05;nan
12054;BME280;5638;50.860;4.698;2022-07-21T08:51:37;101483.16;;;20.16;nan
12054;BME280;5638;50.860;4.698;2022-07-21T08:54:04;101474.13;;;20.22;nan
12054;BME280;5638;50.860;4.698;2022-07-21T08:56:30;101480.72;;;20.32;nan
12054;BME280;5638;50.860;4.698;2022-07-21T08:58:56;101465.03;;;20.10;nan
12054;BME280;5638;50.860;4.698;2022-07-21T09:01:21;101490.63;;;20.25;nan
12054;BME280;5638;50.860;4.698;2022-07-21T09:03:53;101492.31;;;20.26;nan
12054;BME280;5638;50.860;4.698;2022-07-21T09:06:19;101485.38;;;20.25;nan
12054;BME280;5638;50.860;4.698;2022-07-21T09:08:52;101493.78;;;20.33;nan
12054;BME280;5638;50.860;4.698;2022-07-21T09:11:27;101495.22;;;20.40;nan
12054;BME280;5638;50.860;4.698;2022-07-21T09:14:12;101487.06;;;20.26;nan
12054;BME280;5638;50.860;4.698;2022-07-21T09:16:41;101480.66;;;20.13;nan
12054;BME280;5638;50.860;4.698;2022-07-21T09:19:25;101490.84;;;20.21;nan
12054;BME280;5638;50.860;4.698;2022-07-21T09:21:56;101499.16;;;20.30;nan
12054;BME280;5638;50.860;4.698;2022-07-21T09:24:34;101506.19;;;20.50;nan
12054;BME280;5638;50.860;4.698;2022-07-21T09:27:23;101503.13;;;20.78;nan
12054;BME280;5638;50.860;4.698;2022-07-21T09:30:00;101507.63;;;20.95;nan
12054;BME280;5638;50.860;4.698;2022-07-21T09:32:35;101508.19;;;20.83;nan
12054;BME280;5638;50.860;4.698;2022-07-21T09:35:08;101508.63;;;20.74;nan
12054;BME280;5638;50.860;4.698;2022-07-21T09:37:41;101509.69;;;20.70;nan
12054;BME280;5638;50.860;4.698;2022-07-21T09:40:12;101505.19;;;20.72;nan
12054;BME280;5638;50.860;4.698;2022-07-21T09:42:40;101518.06;;;20.97;nan
12054;BME280;5638;50.860;4.698;2022-07-21T09:45:13;101522.59;;;21.12;nan
12054;BME280;5638;50.860;4.698;2022-07-21T09:47:41;101520.28;;;21.23;nan
12054;BME280;5638;50.860;4.698;2022-07-21T09:50:11;101526.56;;;21.21;nan
12054;BME280;5638;50.860;4.698;2022-07-21T09:52:44;101515.34;;;20.98;nan
12054;BME280;5638;50.860;4.698;2022-07-21T09:55:15;101523.03;;;20.84;nan
12054;BME280;5638;50.860;4.698;2022-07-21T09:57:42;101532.78;;;20.82;nan
12054;BME280;5638;50.860;4.698;2022-07-21T10:00:14;101538.41;;;20.74;nan
12054;BME280;5638;50.860;4.698;2022-07-21T10:02:44;101534.19;;;20.89;nan
12054;BME280;5638;50.860;4.698;2022-07-21T10:05:14;101534.06;;;20.92;nan
12054;BME280;5638;50.860;4.698;2022-07-21T10:07:44;101535.69;;;20.95;nan
12054;BME280;5638;50.860;4.698;2022-07-21T10:10:11;101533.91;;;20.95;nan
12054;BME280;5638;50.860;4.698;2022-07-21T10:12:38;101542.94;;;20.89;nan
12054;BME280;5638;50.860;4.698;2022-07-21T10:15:04;101539.22;;;20.94;nan
12054;BME280;5638;50.860;4.698;2022-07-21T10:17:31;101549.34;;;21.03;nan
12054;BME280;5638;50.860;4.698;2022-07-21T10:25:30;101557.00;;;21.26;nan
12054;BME280;5638;50.860;4.698;2022-07-21T10:30:48;101560.13;;;21.34;nan
12054;BME280;5638;50.860;4.698;2022-07-21T10:33:17;101542.91;;;21.27;nan
12054;BME280;5638;50.860;4.698;2022-07-21T10:35:48;101564.66;;;21.31;nan
12054;BME280;5638;50.860;4.698;2022-07-21T10:38:32;101560.72;;;21.41;nan
12054;BME280;5638;50.860;4.698;2022-07-21T10:41:00;101566.16;;;21.55;nan
12054;BME280;5638;50.860;4.698;2022-07-21T10:45:54;101555.34;;;21.43;nan
12054;BME280;5638;50.860;4.698;2022-07-21T10:51:09;101580.84;;;21.42;nan
12054;BME280;5638;50.860;4.698;2022-07-21T10:53:37;101579.69;;;21.29;nan
12054;BME280;5638;50.860;4.698;2022-07-21T10:56:04;101572.16;;;21.21;nan
12054;BME280;5638;50.860;4.698;2022-07-21T10:58:37;101578.13;;;21.25;nan
12054;BME280;5638;50.860;4.698;2022-07-21T11:01:29;101568.31;;;21.28;nan
12054;BME280;5638;50.860;4.698;2022-07-21T11:04:12;101576.25;;;21.27;nan
12054;BME280;5638;50.860;4.698;2022-07-21T11:06:40;101562.28;;;21.07;nan
12054;BME280;5638;50.860;4.698;2022-07-21T11:09:24;101582.94;;;21.15;nan
12054;BME280;5638;50.860;4.698;2022-07-21T11:12:03;101578.78;;;21.11;nan
12054;BME280;5638;50.860;4.698;2022-07-21T11:14:43;101597.97;;;21.13;nan
12054;BME280;5638;50.860;4.698;2022-07-21T11:17:31;101588.94;;;21.19;nan
12054;BME280;5638;50.860;4.698;2022-07-21T11:19:57;101594.44;;;21.33;nan
12054;BME280;5638;50.860;4.698;2022-07-21T11:22:28;101592.00;;;21.28;nan
12054;BME280;5638;50.860;4.698;2022-07-21T11:25:02;101601.72;;;21.26;nan
12054;BME280;5638;50.860;4.698;2022-07-21T11:27:32;101595.00;;;21.21;nan
12054;BME280;5638;50.860;4.698;2022-07-21T11:30:01;101599.69;;;21.14;nan
12054;BME280;5638;50.860;4.698;2022-07-21T11:32:28;101592.06;;;21.08;nan
12054;BME280;5638;50.860;4.698;2022-07-21T11:35:04;101590.38;;;21.07;nan
12054;BME280;5638;50.860;4.698;2022-07-21T11:37:32;101589.94;;;21.16;nan
12054;BME280;5638;50.860;4.698;2022-07-21T11:39:59;101579.81;;;21.26;nan
12054;BME280;5638;50.860;4.698;2022-07-21T11:42:27;101586.47;;;21.34;nan
12054;BME280;5638;50.860;4.698;2022-07-21T11:44:54;101591.22;;;21.45;nan
12054;BME280;5638;50.860;4.698;2022-07-21T11:47:19;101596.66;;;21.59;nan
12054;BME280;5638;50.860;4.698;2022-07-21T11:49:55;101595.69;;;21.62;nan
12054;BME280;5638;50.860;4.698;2022-07-21T11:52:31;101593.81;;;21.64;nan
12054;BME280;5638;50.860;4.698;2022-07-21T11:54:59;101598.78;;;21.70;nan
12054;BME280;5638;50.860;4.698;2022-07-21T11:57:26;101602.75;;;21.79;nan
12054;BME280;5638;50.860;4.698;2022-07-21T11:59:54;101578.63;;;21.69;nan
12054;BME280;5638;50.860;4.698;2022-07-21T12:02:23;101573.50;;;21.30;nan
12054;BME280;5638;50.860;4.698;2022-07-21T12:04:59;101607.94;;;21.44;nan
12054;BME280;5638;50.860;4.698;2022-07-21T12:07:45;101602.31;;;21.14;nan
12054;BME280;5638;50.860;4.698;2022-07-21T12:10:27;101611.22;;;21.11;nan
12054;BME280;5638;50.860;4.698;2022-07-21T12:13:04;101611.13;;;21.13;nan
12054;BME280;5638;50.860;4.698;2022-07-21T12:15:33;101627.81;;;21.32;nan
12054;BME280;5638;50.860;4.698;2022-07-21T12:18:17;101628.34;;;21.20;nan
12054;BME280;5638;50.860;4.698;2022-07-21T12:20:43;101624.72;;;21.23;nan
12054;BME280;5638;50.860;4.698;2022-07-21T12:23:30;101629.63;;;21.30;nan
12054;BME280;5638;50.860;4.698;2022-07-21T12:26:00;101625.81;;;21.37;nan
12054;BME280;5638;50.860;4.698;2022-07-21T12:28:50;101632.06;;;21.54;nan
12054;BME280;5638;50.860;4.698;2022-07-21T12:31:20;101634.34;;;21.43;nan
12054;BME280;5638;50.860;4.698;2022-07-21T12:33:49;101642.63;;;21.14;nan
12054;BME280;5638;50.860;4.698;2022-07-21T12:36:15;101638.00;;;21.01;nan
12054;BME280;5638;50.860;4.698;2022-07-21T12:38:44;101635.88;;;20.90;nan
12054;BME280;5638;50.860;4.698;2022-07-21T12:41:16;101645.69;;;20.86;nan
12054;BME280;5638;50.860;4.698;2022-07-21T12:43:52;101651.31;;;20.77;nan
12054;BME280;5638;50.860;4.698;2022-07-21T12:46:19;101645.16;;;20.78;nan
12054;BME280;5638;50.860;4.698;2022-07-21T12:48:46;101652.13;;;20.79;nan
12054;BME280;5638;50.860;4.698;2022-07-21T12:51:22;101646.03;;;20.79;nan
12054;BME280;5638;50.860;4.698;2022-07-21T12:53:54;101660.78;;;21.21;nan
12054;BME280;5638;50.860;4.698;2022-07-21T12:56:23;101660.34;;;21.30;nan
12054;BME280;5638;50.860;4.698;2022-07-21T12:58:51;101656.47;;;21.38;nan
12054;BME280;5638;50.860;4.698;2022-07-21T13:01:19;101656.03;;;21.48;nan
12054;BME280;5638;50.860;4.698;2022-07-21T13:03:46;101650.84;;;21.46;nan
12054;BME280;5638;50.860;4.698;2022-07-21T13:06:14;101663.06;;;21.66;nan
12054;BME280;5638;50.860;4.698;2022-07-21T13:08:44;101654.38;;;21.64;nan
12054;BME280;5638;50.860;4.698;2022-07-21T13:11:18;101671.84;;;21.48;nan
12054;BME280;5638;50.860;4.698;2022-07-21T13:13:47;101668.34;;;21.28;nan
12054;BME280;5638;50.860;4.698;2022-07-21T13:16:15;101668.34;;;21.28;nan
12054;BME280;5638;50.860;4.698;2022-07-21T13:18:40;101670.44;;;21.41;nan
12054;BME280;5638;50.860;4.698;2022-07-21T13:21:07;101672.19;;;21.59;nan
12054;BME280;5638;50.860;4.698;2022-07-21T13:23:33;101679.78;;;21.65;nan
12054;BME280;5638;50.860;4.698;2022-07-21T13:25:59;101672.31;;;21.56;nan
12054;BME280;5638;50.860;4.698;2022-07-21T13:28:26;101676.19;;;21.49;nan
12054;BME280;5638;50.860;4.698;2022-07-21T13:30:52;101673.44;;;21.31;nan
12054;BME280;5638;50.860;4.698;2022-07-21T13:33:18;101668.56;;;21.43;nan
12054;BME280;5638;50.860;4.698;2022-07-21T13:35:44;101668.94;;;21.54;nan
12054;BME280;5638;50.860;4.698;2022-07-21T13:38:10;101675.91;;;21.55;nan
12054;BME280;5638;50.860;4.698;2022-07-21T13:40:36;101681.50;;;21.66;nan
12054;BME280;5638;50.860;4.698;2022-07-21T13:43:06;101674.94;;;21.75;nan